sensor_id;sensor_type;location;lat;lon;timestamp;temperature;humidity
19003;DHT22;9634;51.040;13.794;2022-11-20T00:04:51;-4.70;99.90
19003;DHT22;9634;51.040;13.794;2022-11-20T00:09:53;-4.60;99.90
19003;DHT22;9634;51.040;13.794;2022-11-20T00:14:56;-4.80;99.90
19003;DHT22;9634;51.040;13.794;2022-11-20T00:19:59;-5.00;99.90
19003;DHT22;9634;51.040;13.794;2022-11-20T00:25:01;-4.70;99.90
19003;DHT22;9634;51.040;13.794;2022-11-20T00:30:06;-4.80;99.90
19003;DHT22;9634;51.040;13.794;2022-11-20T00:35:08;-4.80;99.90
19003;DHT22;9634;51.040;13.794;2022-11-20T00:40:11;-4.70;99.90
19003;DHT22;9634;51.040;13.794;2022-11-20T00:45:15;-4.90;99.90
19003;DHT22;9634;51.040;13.794;2022-11-20T00:50:18;-5.00;99.90
19003;DHT22;9634;51.040;13.794;2022-11-20T00:55:20;-5.00;99.90
19003;DHT22;9634;51.040;13.794;2022-11-20T01:00:23;-5.10;99.90
19003;DHT22;9634;51.040;13.794;2022-11-20T01:05:26;-5.10;99.90
19003;DHT22;9634;51.040;13.794;2022-11-20T01:10:29;-5.30;99.90
19003;DHT22;9634;51.040;13.794;2022-11-20T01:15:33;-5.60;99.90
19003;DHT22;9634;51.040;13.794;2022-11-20T01:20:37;-5.80;99.90
19003;DHT22;9634;51.040;13.794;2022-11-20T01:25:39;-5.80;99.90
19003;DHT22;9634;51.040;13.794;2022-11-20T01:30:43;-5.90;99.90
19003;DHT22;9634;51.040;13.794;2022-11-20T01:35:45;-5.90;99.90
19003;DHT22;9634;51.040;13.794;2022-11-20T01:40:54;-6.00;99.90
19003;DHT22;9634;51.040;13.794;2022-11-20T01:46:04;-5.80;99.90
19003;DHT22;9634;51.040;13.794;2022-11-20T01:51:14;-5.80;99.90
19003;DHT22;9634;51.040;13.794;2022-11-20T01:56:18;-5.90;99.90
19003;DHT22;9634;51.040;13.794;2022-11-20T02:01:21;-5.90;99.90
19003;DHT22;9634;51.040;13.794;2022-11-20T02:06:27;-6.00;99.90
19003;DHT22;9634;51.040;13.794;2022-11-20T02:11:31;-6.00;99.90
19003;DHT22;9634;51.040;13.794;2022-11-20T02:16:37;-5.80;99.90
19003;DHT22;9634;51.040;13.794;2022-11-20T02:21:45;-5.80;99.90
19003;DHT22;9634;51.040;13.794;2022-11-20T02:26:54;-5.90;99.90
19003;DHT22;9634;51.040;13.794;2022-11-20T02:31:59;-6.10;99.90
19003;DHT22;9634;51.040;13.794;2022-11-20T02:37:02;-6.10;99.90
19003;DHT22;9634;51.040;13.794;2022-11-20T02:42:06;-6.00;99.90
19003;DHT22;9634;51.040;13.794;2022-11-20T02:47:08;-6.10;99.90
19003;DHT22;9634;51.040;13.794;2022-11-20T02:52:11;-6.20;99.90
19003;DHT22;9634;51.040;13.794;2022-11-20T02:57:14;-6.20;99.90
19003;DHT22;9634;51.040;13.794;2022-11-20T03:02:17;-6.30;99.90
19003;DHT22;9634;51.040;13.794;2022-11-20T03:07:19;-6.20;99.90
19003;DHT22;9634;51.040;13.794;2022-11-20T03:12:23;-6.20;99.90
19003;DHT22;9634;51.040;13.794;2022-11-20T03:17:25;-6.10;99.90
19003;DHT22;9634;51.040;13.794;2022-11-20T03:22:29;-6.00;99.90
19003;DHT22;9634;51.040;13.794;2022-11-20T03:27:33;-6.00;99.90
19003;DHT22;9634;51.040;13.794;2022-11-20T03:32:36;-6.00;99.90
19003;DHT22;9634;51.040;13.794;2022-11-20T03:37:38;-6.00;99.90
19003;DHT22;9634;51.040;13.794;2022-11-20T03:42:43;-5.90;99.90
19003;DHT22;9634;51.040;13.794;2022-11-20T03:47:48;-5.70;99.90
19003;DHT22;9634;51.040;13.794;2022-11-20T03:52:50;-5.80;99.90
19003;DHT22;9634;51.040;13.794;2022-11-20T03:57:53;-6.00;99.90
19003;DHT22;9634;51.040;13.794;2022-11-20T04:02:58;-6.00;99.90
19003;DHT22;9634;51.040;13.794;2022-11-20T04:08:00;-6.10;99.90
19003;DHT22;9634;51.040;13.794;2022-11-20T04:13:04;-6.30;99.90
19003;DHT22;9634;51.040;13.794;2022-11-20T04:18:06;-6.40;99.90
19003;DHT22;9634;51.040;13.794;2022-11-20T04:23:08;-6.30;99.90
19003;DHT22;9634;51.040;13.794;2022-11-20T04:28:12;-6.20;99.90
19003;DHT22;9634;51.040;13.794;2022-11-20T04:33:14;-6.20;99.90
19003;DHT22;9634;51.040;13.794;2022-11-20T04:38:16;-5.80;99.90
19003;DHT22;9634;51.040;13.794;2022-11-20T04:43:20;-5.70;99.90
19003;DHT22;9634;51.040;13.794;2022-11-20T04:48:22;-5.80;99.90
19003;DHT22;9634;51.040;13.794;2022-11-20T04:53:25;-5.90;99.90
19003;DHT22;9634;51.040;13.794;2022-11-20T04:58:28;-6.00;99.90
19003;DHT22;9634;51.040;13.794;2022-11-20T05:03:31;-6.00;99.90
19003;DHT22;9634;51.040;13.794;2022-11-20T05:08:34;-6.10;99.90
19003;DHT22;9634;51.040;13.794;2022-11-20T05:13:38;-6.20;99.90
19003;DHT22;9634;51.040;13.794;2022-11-20T05:18:40;-6.20;99.90
19003;DHT22;9634;51.040;13.794;2022-11-20T05:23:44;-6.20;99.90
19003;DHT22;9634;51.040;13.794;2022-11-20T05:28:48;-6.20;99.90
19003;DHT22;9634;51.040;13.794;2022-11-20T05:33:51;-6.20;99.90
19003;DHT22;9634;51.040;13.794;2022-11-20T05:38:53;-6.20;99.90
19003;DHT22;9634;51.040;13.794;2022-11-20T05:43:57;-6.40;99.90
19003;DHT22;9634;51.040;13.794;2022-11-20T05:48:59;-6.30;99.90
19003;DHT22;9634;51.040;13.794;2022-11-20T05:54:02;-6.40;99.90
19003;DHT22;9634;51.040;13.794;2022-11-20T05:59:05;-6.40;99.90
19003;DHT22;9634;51.040;13.794;2022-11-20T06:04:08;-6.50;99.90
19003;DHT22;9634;51.040;13.794;2022-11-20T06:09:10;-6.50;99.90
19003;DHT22;9634;51.040;13.794;2022-11-20T06:14:14;-6.50;99.90
19003;DHT22;9634;51.040;13.794;2022-11-20T06:19:16;-6.70;99.90
19003;DHT22;9634;51.040;13.794;2022-11-20T06:24:18;-6.80;99.90
19003;DHT22;9634;51.040;13.794;2022-11-20T06:29:22;-6.80;99.90
19003;DHT22;9634;51.040;13.794;2022-11-20T06:34:24;-6.80;99.90
19003;DHT22;9634;51.040;13.794;2022-11-20T06:39:27;-6.50;99.90
19003;DHT22;9634;51.040;13.794;2022-11-20T06:44:30;-6.10;99.90
19003;DHT22;9634;51.040;13.794;2022-11-20T06:49:33;-6.10;99.90
19003;DHT22;9634;51.040;13.794;2022-11-20T06:54:37;-5.90;99.90
19003;DHT22;9634;51.040;13.794;2022-11-20T06:59:41;-5.90;99.90
19003;DHT22;9634;51.040;13.794;2022-11-20T07:04:43;-5.80;99.90
19003;DHT22;9634;51.040;13.794;2022-11-20T07:09:45;-5.20;99.90
19003;DHT22;9634;51.040;13.794;2022-11-20T07:14:49;-4.70;99.90
19003;DHT22;9634;51.040;13.794;2022-11-20T07:19:51;-4.10;99.90
19003;DHT22;9634;51.040;13.794;2022-11-20T07:24:53;-3.60;99.90
19003;DHT22;9634;51.040;13.794;2022-11-20T07:29:57;-2.90;99.90
19003;DHT22;9634;51.040;13.794;2022-11-20T07:34:59;-2.20;99.90
19003;DHT22;9634;51.040;13.794;2022-11-20T07:40:02;-1.30;99.90
19003;DHT22;9634;51.040;13.794;2022-11-20T07:45:06;-0.90;99.90
19003;DHT22;9634;51.040;13.794;2022-11-20T07:50:09;-0.30;99.90
19003;DHT22;9634;51.040;13.794;2022-11-20T07:55:12;0.60;99.90
19003;DHT22;9634;51.040;13.794;2022-11-20T08:00:16;1.50;99.90
19003;DHT22;9634;51.040;13.794;2022-11-20T08:05:18;2.40;99.90
19003;DHT22;9634;51.040;13.794;2022-11-20T08:10:21;3.40;99.90
19003;DHT22;9634;51.040;13.794;2022-11-20T08:15:24;4.00;99.90
19003;DHT22;9634;51.040;13.794;2022-11-20T08:20:27;4.90;94.60
19003;DHT22;9634;51.040;13.794;2022-11-20T08:25:29;5.40;87.60
19003;DHT22;9634;51.040;13.794;2022-11-20T08:30:33;6.40;78.80
19003;DHT22;9634;51.040;13.794;2022-11-20T08:35:36;7.10;67.00
19003;DHT22;9634;51.040;13.794;2022-11-20T08:40:39;8.00;55.60
19003;DHT22;9634;51.040;13.794;2022-11-20T08:45:43;8.70;54.80
19003;DHT22;9634;51.040;13.794;2022-11-20T08:50:45;9.50;45.90
19003;DHT22;9634;51.040;13.794;2022-11-20T08:55:47;10.00;40.30
19003;DHT22;9634;51.040;13.794;2022-11-20T09:00:51;10.60;36.50
19003;DHT22;9634;51.040;13.794;2022-11-20T09:05:57;10.80;34.20
19003;DHT22;9634;51.040;13.794;2022-11-20T09:11:00;10.00;37.10
19003;DHT22;9634;51.040;13.794;2022-11-20T09:16:05;9.10;52.70
19003;DHT22;9634;51.040;13.794;2022-11-20T09:21:10;9.10;46.10
19003;DHT22;9634;51.040;13.794;2022-11-20T09:26:14;8.60;47.80
19003;DHT22;9634;51.040;13.794;2022-11-20T09:31:22;11.10;37.10
19003;DHT22;9634;51.040;13.794;2022-11-20T09:36:25;12.70;29.80
19003;DHT22;9634;51.040;13.794;2022-11-20T09:41:39;13.60;26.60
19003;DHT22;9634;51.040;13.794;2022-11-20T09:46:54;13.80;28.00
19003;DHT22;9634;51.040;13.794;2022-11-20T09:52:00;14.90;23.70
19003;DHT22;9634;51.040;13.794;2022-11-20T09:57:09;15.80;20.90
19003;DHT22;9634;51.040;13.794;2022-11-20T10:02:28;16.80;18.90
19003;DHT22;9634;51.040;13.794;2022-11-20T10:07:38;17.30;16.70
19003;DHT22;9634;51.040;13.794;2022-11-20T10:12:51;16.80;16.00
19003;DHT22;9634;51.040;13.794;2022-11-20T10:18:13;16.40;15.20
19003;DHT22;9634;51.040;13.794;2022-11-20T10:23:32;16.10;16.60
19003;DHT22;9634;51.040;13.794;2022-11-20T10:28:49;17.90;14.30
19003;DHT22;9634;51.040;13.794;2022-11-20T10:33:55;18.50;12.70
19003;DHT22;9634;51.040;13.794;2022-11-20T10:39:03;19.20;12.40
19003;DHT22;9634;51.040;13.794;2022-11-20T10:44:17;19.70;12.40
19003;DHT22;9634;51.040;13.794;2022-11-20T10:49:44;20.00;11.10
19003;DHT22;9634;51.040;13.794;2022-11-20T10:54:52;21.60;10.20
19003;DHT22;9634;51.040;13.794;2022-11-20T11:00:02;19.20;9.80
19003;DHT22;9634;51.040;13.794;2022-11-20T11:05:13;14.60;13.40
19003;DHT22;9634;51.040;13.794;2022-11-20T11:10:22;12.40;17.20
19003;DHT22;9634;51.040;13.794;2022-11-20T11:15:28;12.20;19.00
19003;DHT22;9634;51.040;13.794;2022-11-20T11:20:32;15.30;17.10
19003;DHT22;9634;51.040;13.794;2022-11-20T11:25:36;15.30;15.70
19003;DHT22;9634;51.040;13.794;2022-11-20T11:30:43;15.10;16.80
19003;DHT22;9634;51.040;13.794;2022-11-20T11:35:49;12.90;17.70
19003;DHT22;9634;51.040;13.794;2022-11-20T11:40:54;11.10;20.20
19003;DHT22;9634;51.040;13.794;2022-11-20T11:45:57;11.00;23.00
19003;DHT22;9634;51.040;13.794;2022-11-20T11:51:01;16.70;18.60
19003;DHT22;9634;51.040;13.794;2022-11-20T11:56:07;19.00;14.10
19003;DHT22;9634;51.040;13.794;2022-11-20T12:01:21;20.00;13.30
19003;DHT22;9634;51.040;13.794;2022-11-20T12:06:29;22.00;12.40
19003;DHT22;9634;51.040;13.794;2022-11-20T12:11:37;19.00;12.30
19003;DHT22;9634;51.040;13.794;2022-11-20T12:16:42;19.80;13.30
19003;DHT22;9634;51.040;13.794;2022-11-20T12:21:54;20.10;12.40
19003;DHT22;9634;51.040;13.794;2022-11-20T12:27:08;16.20;15.60
19003;DHT22;9634;51.040;13.794;2022-11-20T12:32:48;10.70;20.30
19003;DHT22;9634;51.040;13.794;2022-11-20T12:38:11;7.90;28.60
19003;DHT22;9634;51.040;13.794;2022-11-20T12:43:19;6.40;36.90
19003;DHT22;9634;51.040;13.794;2022-11-20T12:48:52;4.90;71.60
19003;DHT22;9634;51.040;13.794;2022-11-20T12:54:25;3.90;99.90
19003;DHT22;9634;51.040;13.794;2022-11-20T12:59:49;3.40;99.90
19003;DHT22;9634;51.040;13.794;2022-11-20T13:05:17;3.30;99.90
19003;DHT22;9634;51.040;13.794;2022-11-20T13:10:27;3.20;99.90
19003;DHT22;9634;51.040;13.794;2022-11-20T13:15:40;3.20;99.90
19003;DHT22;9634;51.040;13.794;2022-11-20T13:20:46;2.90;99.90
19003;DHT22;9634;51.040;13.794;2022-11-20T13:26:03;2.80;99.90
19003;DHT22;9634;51.040;13.794;2022-11-20T13:31:31;2.80;99.90
19003;DHT22;9634;51.040;13.794;2022-11-20T13:36:33;2.90;99.90
19003;DHT22;9634;51.040;13.794;2022-11-20T13:41:39;3.10;99.90
19003;DHT22;9634;51.040;13.794;2022-11-20T13:46:43;3.10;99.90
19003;DHT22;9634;51.040;13.794;2022-11-20T13:51:47;3.20;99.90
19003;DHT22;9634;51.040;13.794;2022-11-20T13:57:01;3.20;99.90
19003;DHT22;9634;51.040;13.794;2022-11-20T14:02:11;3.00;99.90
19003;DHT22;9634;51.040;13.794;2022-11-20T14:07:15;2.80;99.90
19003;DHT22;9634;51.040;13.794;2022-11-20T14:12:21;2.70;99.90
19003;DHT22;9634;51.040;13.794;2022-11-20T14:17:29;2.50;99.90
19003;DHT22;9634;51.040;13.794;2022-11-20T14:22:32;2.40;99.90
19003;DHT22;9634;51.040;13.794;2022-11-20T14:27:37;2.20;99.90
19003;DHT22;9634;51.040;13.794;2022-11-20T14:32:39;2.20;99.90
19003;DHT22;9634;51.040;13.794;2022-11-20T14:37:43;2.30;99.90
19003;DHT22;9634;51.040;13.794;2022-11-20T14:42:46;2.30;99.90
19003;DHT22;9634;51.040;13.794;2022-11-20T14:47:49;2.30;99.90
19003;DHT22;9634;51.040;13.794;2022-11-20T14:52:54;2.10;99.90
19003;DHT22;9634;51.040;13.794;2022-11-20T14:57:59;1.90;99.90
19003;DHT22;9634;51.040;13.794;2022-11-20T15:03:02;1.60;99.90
19003;DHT22;9634;51.040;13.794;2022-11-20T15:08:07;1.30;99.90
19003;DHT22;9634;51.040;13.794;2022-11-20T15:13:14;1.10;99.90
19003;DHT22;9634;51.040;13.794;2022-11-20T15:18:19;0.60;99.90
19003;DHT22;9634;51.040;13.794;2022-11-20T15:23:23;0.20;99.90
19003;DHT22;9634;51.040;13.794;2022-11-20T15:28:31;0.00;99.90
19003;DHT22;9634;51.040;13.794;2022-11-20T15:33:33;-0.40;99.90
19003;DHT22;9634;51.040;13.794;2022-11-20T15:38:36;-0.60;99.90
19003;DHT22;9634;51.040;13.794;2022-11-20T15:43:39;-0.60;99.90
19003;DHT22;9634;51.040;13.794;2022-11-20T15:48:43;-1.00;99.90
19003;DHT22;9634;51.040;13.794;2022-11-20T15:53:46;-1.10;99.90
19003;DHT22;9634;51.040;13.794;2022-11-20T15:58:49;-1.20;99.90
19003;DHT22;9634;51.040;13.794;2022-11-20T16:03:51;-1.30;99.90
19003;DHT22;9634;51.040;13.794;2022-11-20T16:08:54;-1.40;99.90
19003;DHT22;9634;51.040;13.794;2022-11-20T16:13:57;-1.50;99.90
19003;DHT22;9634;51.040;13.794;2022-11-20T16:19:17;-1.60;99.90
19003;DHT22;9634;51.040;13.794;2022-11-20T16:24:19;-1.60;99.90
19003;DHT22;9634;51.040;13.794;2022-11-20T16:29:23;-1.80;99.90
19003;DHT22;9634;51.040;13.794;2022-11-20T16:34:25;-1.90;99.90
19003;DHT22;9634;51.040;13.794;2022-11-20T16:39:28;-2.00;99.90
19003;DHT22;9634;51.040;13.794;2022-11-20T16:44:31;-1.80;99.90
19003;DHT22;9634;51.040;13.794;2022-11-20T16:49:34;-1.80;99.90
19003;DHT22;9634;51.040;13.794;2022-11-20T16:54:36;-2.00;99.90
19003;DHT22;9634;51.040;13.794;2022-11-20T16:59:40;-2.00;99.90
19003;DHT22;9634;51.040;13.794;2022-11-20T17:04:43;-2.10;99.90
19003;DHT22;9634;51.040;13.794;2022-11-20T17:09:45;-2.30;99.90
19003;DHT22;9634;51.040;13.794;2022-11-20T17:14:49;-2.30;99.90
19003;DHT22;9634;51.040;13.794;2022-11-20T17:19:51;-2.40;99.90
19003;DHT22;9634;51.040;13.794;2022-11-20T17:24:53;-2.40;99.90
19003;DHT22;9634;51.040;13.794;2022-11-20T17:29:57;-2.50;99.90
19003;DHT22;9634;51.040;13.794;2022-11-20T17:34:59;-2.60;99.90
19003;DHT22;9634;51.040;13.794;2022-11-20T17:40:02;-2.60;99.90
19003;DHT22;9634;51.040;13.794;2022-11-20T17:45:06;-2.60;99.90
19003;DHT22;9634;51.040;13.794;2022-11-20T17:50:09;-2.70;99.90
19003;DHT22;9634;51.040;13.794;2022-11-20T17:55:11;-2.70;99.90
19003;DHT22;9634;51.040;13.794;2022-11-20T18:00:16;-2.80;99.90
19003;DHT22;9634;51.040;13.794;2022-11-20T18:05:25;-2.90;99.90
19003;DHT22;9634;51.040;13.794;2022-11-20T18:10:28;-2.80;99.90
19003;DHT22;9634;51.040;13.794;2022-11-20T18:15:32;-2.90;99.90
19003;DHT22;9634;51.040;13.794;2022-11-20T18:20:34;-2.70;99.90
19003;DHT22;9634;51.040;13.794;2022-11-20T18:25:36;-2.80;99.90
19003;DHT22;9634;51.040;13.794;2022-11-20T18:30:41;-2.90;99.90
19003;DHT22;9634;51.040;13.794;2022-11-20T18:35:43;-2.80;99.90
19003;DHT22;9634;51.040;13.794;2022-11-20T18:40:45;-2.80;99.90
19003;DHT22;9634;51.040;13.794;2022-11-20T18:45:49;-2.80;99.90
19003;DHT22;9634;51.040;13.794;2022-11-20T18:50:52;-2.80;99.90
19003;DHT22;9634;51.040;13.794;2022-11-20T18:55:54;-3.00;99.90
19003;DHT22;9634;51.040;13.794;2022-11-20T19:01:05;-3.00;99.90
19003;DHT22;9634;51.040;13.794;2022-11-20T19:06:11;-2.90;99.90
19003;DHT22;9634;51.040;13.794;2022-11-20T19:11:14;-3.00;99.90
19003;DHT22;9634;51.040;13.794;2022-11-20T19:16:19;-2.80;99.90
19003;DHT22;9634;51.040;13.794;2022-11-20T19:21:23;-2.70;99.90
19003;DHT22;9634;51.040;13.794;2022-11-20T19:26:26;-2.70;99.90
19003;DHT22;9634;51.040;13.794;2022-11-20T19:31:29;-2.80;99.90
19003;DHT22;9634;51.040;13.794;2022-11-20T19:36:33;-3.00;99.90
19003;DHT22;9634;51.040;13.794;2022-11-20T19:41:37;-2.90;99.90
19003;DHT22;9634;51.040;13.794;2022-11-20T19:46:41;-2.80;99.90
19003;DHT22;9634;51.040;13.794;2022-11-20T19:51:45;-2.80;99.90
19003;DHT22;9634;51.040;13.794;2022-11-20T19:56:47;-2.90;99.90
19003;DHT22;9634;51.040;13.794;2022-11-20T20:01:51;-2.90;99.90
19003;DHT22;9634;51.040;13.794;2022-11-20T20:06:53;-2.90;99.90
19003;DHT22;9634;51.040;13.794;2022-11-20T20:11:56;-2.70;99.90
19003;DHT22;9634;51.040;13.794;2022-11-20T20:16:59;-2.60;99.90
19003;DHT22;9634;51.040;13.794;2022-11-20T20:22:02;-2.70;99.90
19003;DHT22;9634;51.040;13.794;2022-11-20T20:27:04;-2.40;99.90
19003;DHT22;9634;51.040;13.794;2022-11-20T20:32:08;-2.40;99.90
19003;DHT22;9634;51.040;13.794;2022-11-20T20:37:10;-2.10;99.90
19003;DHT22;9634;51.040;13.794;2022-11-20T20:42:12;-1.60;99.90
19003;DHT22;9634;51.040;13.794;2022-11-20T20:47:16;-1.30;99.90
19003;DHT22;9634;51.040;13.794;2022-11-20T20:52:18;-1.20;99.90
19003;DHT22;9634;51.040;13.794;2022-11-20T20:57:22;-1.00;99.90
19003;DHT22;9634;51.040;13.794;2022-11-20T21:02:26;-0.90;99.90
19003;DHT22;9634;51.040;13.794;2022-11-20T21:07:28;-1.00;99.90
19003;DHT22;9634;51.040;13.794;2022-11-20T21:12:30;-1.10;99.90
19003;DHT22;9634;51.040;13.794;2022-11-20T21:17:34;-1.10;99.90
19003;DHT22;9634;51.040;13.794;2022-11-20T21:22:36;-1.00;99.90
19003;DHT22;9634;51.040;13.794;2022-11-20T21:27:39;-1.00;99.90
19003;DHT22;9634;51.040;13.794;2022-11-20T21:32:42;-0.90;99.90
19003;DHT22;9634;51.040;13.794;2022-11-20T21:37:44;-1.00;99.90
19003;DHT22;9634;51.040;13.794;2022-11-20T21:42:46;-0.90;99.90
19003;DHT22;9634;51.040;13.794;2022-11-20T21:47:50;-0.70;99.90
19003;DHT22;9634;51.040;13.794;2022-11-20T21:52:53;-0.50;99.90
19003;DHT22;9634;51.040;13.794;2022-11-20T21:57:55;-0.50;99.90
19003;DHT22;9634;51.040;13.794;2022-11-20T22:02:59;-0.60;99.90
19003;DHT22;9634;51.040;13.794;2022-11-20T22:08:01;-0.40;99.90
19003;DHT22;9634;51.040;13.794;2022-11-20T22:13:04;-0.30;99.90
19003;DHT22;9634;51.040;13.794;2022-11-20T22:18:25;-0.20;99.90
19003;DHT22;9634;51.040;13.794;2022-11-20T22:23:28;0.00;99.90
19003;DHT22;9634;51.040;13.794;2022-11-20T22:28:31;0.10;99.90
19003;DHT22;9634;51.040;13.794;2022-11-20T22:33:36;0.10;99.90
19003;DHT22;9634;51.040;13.794;2022-11-20T22:38:38;0.10;99.90
19003;DHT22;9634;51.040;13.794;2022-11-20T22:43:41;0.10;99.90
19003;DHT22;9634;51.040;13.794;2022-11-20T22:48:52;0.10;99.90
19003;DHT22;9634;51.040;13.794;2022-11-20T22:53:54;0.20;99.90
19003;DHT22;9634;51.040;13.794;2022-11-20T22:58:57;0.30;99.90
19003;DHT22;9634;51.040;13.794;2022-11-20T23:04:03;0.30;99.90
19003;DHT22;9634;51.040;13.794;2022-11-20T23:09:06;0.30;99.90
19003;DHT22;9634;51.040;13.794;2022-11-20T23:14:12;0.30;99.90
19003;DHT22;9634;51.040;13.794;2022-11-20T23:19:16;0.30;99.90
19003;DHT22;9634;51.040;13.794;2022-11-20T23:24:19;0.30;99.90
19003;DHT22;9634;51.040;13.794;2022-11-20T23:29:21;0.20;99.90
19003;DHT22;9634;51.040;13.794;2022-11-20T23:34:24;0.10;99.90
19003;DHT22;9634;51.040;13.794;2022-11-20T23:39:29;0.20;99.90
19003;DHT22;9634;51.040;13.794;2022-11-20T23:44:32;0.20;99.90
19003;DHT22;9634;51.040;13.794;2022-11-20T23:49:36;0.20;99.90
19003;DHT22;9634;51.040;13.794;2022-11-20T23:54:40;0.30;99.90
19003;DHT22;9634;51.040;13.794;2022-11-20T23:59:42;0.40;99.90
